createdAt,value
2023-02-04T00:01:58.529Z,11.98
2023-02-04T00:07:00.300Z,11.73
2023-02-04T00:12:02.461Z,11.50
2023-02-04T00:17:04.235Z,11.70
2023-02-04T00:22:07.741Z,12.52
2023-02-04T00:27:09.566Z,11.23
2023-02-04T00:32:11.684Z,12.27
2023-02-04T00:37:13.666Z,12.30
2023-02-04T00:42:15.968Z,11.25
2023-02-04T00:47:17.771Z,11.80
2023-02-04T00:52:19.555Z,11.52
2023-02-04T00:57:21.613Z,12.00
2023-02-04T01:02:23.416Z,11.63
2023-02-04T01:07:25.265Z,13.10
2023-02-04T01:12:28.755Z,12.10
2023-02-04T01:17:31.124Z,13.35
2023-02-04T01:22:33.029Z,13.90
2023-02-04T01:27:34.989Z,12.77
2023-02-04T01:32:36.787Z,14.52
2023-02-04T01:37:38.776Z,13.65
2023-02-04T01:42:41.051Z,15.27
2023-02-04T01:47:44.229Z,13.77
2023-02-04T01:52:46.901Z,14.93
2023-02-04T01:57:52.921Z,13.48
2023-02-04T02:02:55.256Z,9.55
2023-02-04T02:07:58.924Z,6.82
2023-02-04T02:13:01.183Z,7.00
2023-02-04T02:18:03.409Z,5.03
2023-02-04T02:23:20.127Z,4.35
2023-02-04T02:28:23.963Z,4.25
2023-02-04T02:33:26.437Z,4.25
2023-02-04T02:38:28.283Z,3.60
2023-02-04T02:43:30.582Z,3.60
2023-02-04T02:48:32.674Z,4.32
2023-02-04T02:53:34.636Z,3.78
2023-02-04T02:58:36.756Z,3.97
2023-02-04T03:03:51.163Z,3.65
2023-02-04T03:08:56.004Z,4.00
2023-02-04T03:14:01.033Z,4.95
2023-02-04T03:19:04.767Z,4.20
2023-02-04T03:24:07.369Z,4.32
2023-02-04T03:29:12.529Z,3.47
2023-02-04T03:34:14.463Z,4.18
2023-02-04T03:39:16.475Z,4.03
2023-02-04T03:44:18.874Z,4.00
2023-02-04T03:49:21.125Z,4.32
2023-02-04T03:54:22.936Z,4.30
2023-02-04T03:59:24.691Z,3.85
2023-02-04T04:04:26.450Z,4.72
2023-02-04T04:09:28.262Z,6.85
2023-02-04T04:14:31.352Z,6.80
2023-02-04T04:19:33.520Z,6.90
2023-02-04T04:24:35.290Z,6.22
2023-02-04T04:29:37.087Z,6.60
2023-02-04T04:34:39.000Z,7.57
2023-02-04T04:39:40.950Z,6.47
2023-02-04T04:44:42.723Z,6.90
2023-02-04T04:49:44.672Z,7.72
2023-02-04T04:54:46.879Z,6.88
2023-02-04T04:59:48.699Z,7.15
2023-02-04T05:04:50.584Z,6.80
2023-02-04T05:09:52.533Z,6.90
2023-02-04T05:14:54.320Z,7.82
2023-02-04T05:19:56.234Z,9.10
2023-02-04T05:24:58.230Z,7.97
2023-02-04T05:30:00.046Z,7.53
2023-02-04T05:35:01.955Z,8.98
2023-02-04T05:40:04.217Z,8.25
2023-02-04T05:45:06.281Z,8.80
2023-02-04T05:50:08.862Z,9.38
2023-02-04T05:55:12.205Z,8.35
2023-02-04T06:00:14.442Z,9.45
2023-02-04T06:05:16.809Z,9.48
2023-02-04T06:10:18.845Z,9.38
2023-02-04T06:15:20.827Z,10.95
2023-02-04T06:20:22.602Z,10.27
2023-02-04T06:25:24.433Z,8.50
2023-02-04T06:30:26.262Z,8.00
2023-02-04T06:35:28.060Z,9.07
2023-02-04T06:40:30.047Z,9.82
2023-02-04T06:45:32.607Z,10.30
2023-02-04T06:50:34.465Z,10.68
2023-02-04T06:55:36.322Z,10.32
2023-02-04T07:00:38.356Z,11.13
2023-02-04T07:05:40.236Z,9.48
2023-02-04T07:10:42.016Z,11.20
2023-02-04T07:15:43.804Z,11.50
2023-02-04T07:20:46.122Z,12.95
2023-02-04T07:25:49.306Z,13.55
2023-02-04T07:30:51.417Z,12.63
2023-02-04T07:35:53.255Z,14.18
2023-02-04T07:40:55.350Z,13.48
2023-02-04T07:45:57.655Z,13.60
2023-02-04T07:50:59.465Z,14.50
2023-02-04T07:56:01.744Z,13.45
2023-02-04T08:01:03.865Z,12.30
2023-02-04T08:06:05.854Z,14.43
2023-02-04T08:11:07.903Z,14.32
2023-02-04T08:16:11.822Z,12.50
2023-02-04T08:21:13.858Z,13.40
2023-02-04T08:26:15.661Z,12.23
2023-02-04T08:31:17.628Z,13.07
2023-02-04T08:36:19.617Z,10.60
2023-02-04T08:41:21.398Z,9.23
2023-02-04T08:46:23.229Z,10.38
2023-02-04T08:51:25.325Z,11.00
2023-02-04T08:56:27.217Z,12.23
2023-02-04T09:01:29.055Z,11.55
2023-02-04T09:06:30.933Z,12.43
2023-02-04T09:11:32.745Z,10.50
2023-02-04T09:16:34.985Z,10.05
2023-02-04T09:21:36.817Z,10.88
2023-02-04T09:26:38.617Z,11.20
2023-02-04T09:31:40.702Z,11.10
2023-02-04T09:36:42.557Z,10.32
2023-02-04T09:41:44.492Z,11.98
2023-02-04T09:46:52.678Z,11.82
2023-02-04T09:51:55.349Z,10.85
2023-02-04T09:56:59.447Z,10.32
2023-02-04T10:02:02.896Z,10.68
2023-02-04T10:07:12.336Z,11.18
2023-02-04T10:12:14.647Z,10.55
2023-02-04T10:17:22.014Z,10.35
2023-02-04T10:22:23.929Z,10.30
2023-02-04T10:27:25.846Z,8.52
2023-02-04T10:32:33.710Z,9.25
2023-02-04T10:37:35.548Z,10.30
2023-02-04T10:42:37.339Z,9.52
2023-02-04T10:47:39.210Z,8.68
2023-02-04T10:52:44.570Z,9.52
2023-02-04T10:57:49.280Z,8.23
2023-02-04T11:02:59.194Z,8.93
2023-02-04T11:08:02.433Z,10.27
2023-02-04T11:13:07.080Z,10.00
2023-02-04T11:18:14.012Z,11.43
2023-02-04T11:23:17.345Z,10.90
2023-02-04T11:28:26.529Z,9.55
2023-02-04T11:33:39.077Z,7.80
2023-02-04T11:38:46.909Z,8.20
2023-02-04T11:43:51.978Z,8.07
2023-02-04T11:48:55.634Z,8.13
2023-02-04T11:53:57.513Z,8.18
2023-02-04T11:58:59.465Z,7.55
2023-02-04T12:04:04.243Z,6.35
2023-02-04T12:09:24.397Z,4.45
2023-02-04T12:14:36.698Z,3.17
2023-02-04T12:19:38.673Z,5.45
2023-02-04T12:24:40.513Z,6.05
2023-02-04T12:29:42.294Z,4.70
2023-02-04T12:34:44.091Z,5.88
2023-02-04T12:39:45.910Z,5.30
2023-02-04T12:44:47.720Z,5.35
2023-02-04T12:49:49.724Z,4.55
2023-02-04T12:54:51.692Z,4.82
2023-02-04T12:59:53.560Z,5.35
2023-02-04T13:04:55.362Z,4.88
2023-02-04T13:09:57.569Z,4.28
2023-02-04T13:14:59.434Z,3.50
2023-02-04T13:20:01.549Z,4.07
2023-02-04T13:25:04.805Z,4.22
2023-02-04T13:30:11.429Z,4.30
2023-02-04T13:35:15.662Z,4.63
2023-02-04T13:40:17.897Z,5.47
2023-02-04T13:45:20.050Z,6.07
2023-02-04T13:50:21.882Z,6.30
2023-02-04T13:55:24.554Z,6.63
2023-02-04T14:00:26.388Z,6.80
2023-02-04T14:05:28.233Z,6.45
2023-02-04T14:10:30.436Z,9.32
2023-02-04T14:15:34.727Z,11.40
2023-02-04T14:20:36.949Z,9.82
2023-02-04T14:25:39.300Z,9.25
2023-02-04T14:30:41.414Z,9.15
2023-02-04T14:35:43.463Z,9.98
2023-02-04T14:40:45.913Z,13.00
2023-02-04T14:45:47.712Z,8.35
2023-02-04T14:50:49.662Z,9.80
2023-02-04T14:55:51.602Z,10.63
2023-02-04T15:00:53.762Z,8.98
2023-02-04T15:05:55.798Z,9.25
2023-02-04T15:10:57.730Z,8.02
2023-02-04T15:15:59.724Z,13.57
2023-02-04T15:21:01.976Z,9.77
2023-02-04T15:26:04.300Z,9.40
2023-02-04T15:31:06.255Z,10.13
2023-02-04T15:36:08.523Z,8.75
2023-02-04T15:41:10.403Z,9.57
2023-02-04T15:46:12.807Z,11.48
2023-02-04T15:51:14.726Z,9.52
2023-02-04T15:56:16.777Z,10.02
2023-02-04T16:01:20.036Z,10.68
2023-02-04T16:06:22.934Z,11.00
2023-02-04T16:11:24.735Z,12.55
2023-02-04T16:16:26.578Z,14.40
2023-02-04T16:21:28.513Z,13.20
2023-02-04T16:26:33.201Z,14.48
2023-02-04T16:31:35.054Z,14.40
2023-02-04T16:36:36.864Z,14.30
2023-02-04T16:41:38.647Z,14.90
2023-02-04T16:46:40.743Z,14.23
2023-02-04T16:51:42.709Z,15.82
2023-02-04T16:56:44.498Z,16.27
2023-02-04T17:01:46.486Z,15.30
2023-02-04T17:06:48.421Z,19.77
2023-02-04T17:11:50.724Z,20.13
2023-02-04T17:16:52.628Z,23.05
2023-02-04T17:21:54.402Z,27.48
2023-02-04T17:26:57.781Z,23.73
2023-02-04T17:31:59.569Z,52.33
2023-02-04T17:37:01.365Z,22.35
2023-02-04T17:42:03.360Z,15.52
2023-02-04T17:47:05.257Z,14.23
2023-02-04T17:52:07.112Z,15.18
2023-02-04T17:57:20.769Z,15.80
2023-02-04T18:02:31.597Z,16.25
2023-02-04T18:07:34.191Z,18.35
2023-02-04T18:12:36.054Z,20.75
2023-02-04T18:17:37.829Z,19.67
2023-02-04T18:22:39.747Z,19.38
2023-02-04T18:27:41.582Z,19.52
2023-02-04T18:32:43.496Z,21.50
2023-02-04T18:37:51.304Z,18.70
2023-02-04T18:43:21.220Z,20.08
2023-02-04T18:48:23.710Z,19.17
2023-02-04T18:53:27.616Z,19.80
2023-02-04T18:58:45.099Z,22.00
2023-02-04T19:03:56.108Z,19.60
2023-02-04T19:09:36.625Z,19.38
2023-02-04T19:14:44.046Z,31.02
2023-02-04T19:19:58.502Z,20.23
2023-02-04T19:25:21.705Z,18.48
2023-02-04T19:30:29.704Z,17.77
2023-02-04T19:35:42.225Z,19.25
2023-02-04T19:40:53.132Z,18.40
2023-02-04T19:45:55.238Z,19.10
2023-02-04T19:50:57.285Z,20.27
2023-02-04T19:55:59.235Z,16.15
2023-02-04T20:01:08.296Z,16.65
2023-02-04T20:06:10.135Z,15.40
2023-02-04T20:11:18.030Z,15.02
2023-02-04T20:16:39.277Z,15.20
2023-02-04T20:21:41.151Z,13.70
2023-02-04T20:26:43.509Z,14.23
2023-02-04T20:31:45.376Z,15.43
2023-02-04T20:36:47.454Z,15.15
2023-02-04T20:41:49.476Z,14.40
2023-02-04T20:46:51.807Z,14.85
2023-02-04T20:52:02.821Z,14.82
2023-02-04T20:57:17.879Z,16.02
2023-02-04T21:02:23.255Z,15.68
2023-02-04T21:07:25.481Z,15.27
2023-02-04T21:12:30.110Z,15.63
2023-02-04T21:17:31.908Z,14.93
2023-02-04T21:22:34.115Z,15.07
2023-02-04T21:27:36.528Z,16.98
2023-02-04T21:32:38.925Z,13.65
2023-02-04T21:37:42.859Z,16.08
2023-02-04T21:42:44.803Z,15.15
2023-02-04T21:47:48.208Z,14.32
2023-02-04T21:52:50.361Z,15.73
2023-02-04T21:57:53.247Z,15.73
2023-02-04T22:02:55.205Z,15.38
2023-02-04T22:07:59.500Z,16.20
2023-02-04T22:13:01.776Z,15.50
2023-02-04T22:18:03.968Z,17.42
2023-02-04T22:23:06.130Z,15.43
2023-02-04T22:28:08.010Z,15.95
2023-02-04T22:33:11.629Z,15.32
2023-02-04T22:38:13.432Z,16.02
2023-02-04T22:43:15.968Z,16.40
2023-02-04T22:48:17.810Z,17.23
2023-02-04T22:53:22.136Z,17.02
2023-02-04T22:58:24.266Z,18.35
2023-02-04T23:03:26.036Z,17.92
2023-02-04T23:08:28.245Z,17.88
2023-02-04T23:13:30.183Z,19.05
2023-02-04T23:18:32.179Z,19.20
2023-02-04T23:23:34.197Z,18.50
2023-02-04T23:28:36.059Z,18.20
2023-02-04T23:33:37.948Z,19.83
2023-02-04T23:38:39.816Z,18.83
2023-02-04T23:43:41.734Z,20.10
2023-02-04T23:48:43.514Z,19.65
2023-02-04T23:53:45.783Z,19.38
2023-02-04T23:58:48.729Z,20.50
